Hauptseite
METAR-TAF:

METAR-TAF

Flughäfen :

George Best Belfast City Airport

Belfast City, Nordirland

Breite: 54-36N, Länge: 005-53W, Höhe: 5 m

Beobachtung

Neuester Wetterbericht von vor 25 Minuten, um 21:20 UTC
Wind 3 kt aus unterschiedlichen Richtungen
Temperatur 16°C
Luftfeuchtigkeit 72%
Luftdruck 1013 hPa
Sichtweite 10 km oder mehr

METAR: EGAC 162120Z AUTO VRB03KT 9999 BKN038/// BKN046/// 16/11 Q1013

Zeit: 22:45 (21:45 UTC)

Prognose

Neuester Wetterbericht von vor 4 Stunden und 48 Minuten, um 16:57 UTC
Gültige Prognose vom 16 um 18 UTC bis 16 um 21 UTC
Wind 8 kt aus West/Südwest
Sichtweite 10 km oder mehr
Aufgelockert bewölkt in der Höhe von 3500 ft
Wahrscheinlichkeit 30% :
Zeitweise
vom 16 um 18 UTC bis 16 um 21 UTC
Sichtweite: 8000 m
Regenschauer

TAF: EGAC 161657Z 1618/1621 25008KT 9999 SCT035 PROB30 TEMPO 1618/1621 8000 SHRA

Wetterbeobachtungen und Prognosen von mehr als 4000 Flughäfen (METAR und TAF Bericht).

Die verfügbaren Stationen werden durch gelbe und rote Markierungen auf der Karte dargestellt.

Führen Sie die Maus auf sie, um den Namen der Station zu sehen.

Darauf klicken, um die Beobachtung von Wetterbeobachtungen und Prognosen zu sehen.

Um die Karte zu ändern : klicken Sie auf den grünen Tasten mit einem schwarzen Kreuz Zum Vergrößern, auf den grünen Button mit einem Gedankenstrich zu verkleinern, oder auf die grünen Pfeile für benachbarte Karten.


METAR-TAF: